Aérodrome :
LOGIN :

S'inscrire | Disclaimer

   EN    FR    IT 

 










Légende :    VFR   VFR Marginal   IFR   IFR Intensif   IFR Très Intensif
Visi : 
Plafond : 
>= 8 km
>= 3000ft
5 à 8 km
1000 à 3000 ft
1500m à 5 km
500 à 1000 ft
800 à 1500m
200 à 500 ft
< 800m
< 200 ft
Symboles :   Orages  Brouillard  Fortes neiges  Fortes précipitations  Vent > 20 kt
SIGMETs :   Divers  Orages  Givrage  Turbulence  Onde Orograph.  Cendres Volcan.







- Altitude de l'aérodrome : 97 ft
- Code IATA : EBJ


EKEB - Esbjerg

DERNIER METAR :
  • 180450Z AUTO 18009KT 2400NDV BR OVC002/// 00/00 Q1025

METARs EXPIRÉS :
  • 180420Z AUTO 18009KT 1000NDV R08/P1500U R26/P1500N BR OVC002/// 00/M00 Q1025
  • 180350Z AUTO 18010KT 0550NDV R08/1300N R26/P1500N FG OVC002/// M00/M00 Q1025
  • 180320Z AUTO 18009KT 0750NDV R08/P1500D R26/P1500U FG OVC002/// M00/M00 Q1026
  • 180250Z AUTO 18008KT 0500NDV R08/1200VP1500U R26/P1500U FG OVC002/// M00/M00 Q1026
  • 180220Z AUTO 20009KT 0700NDV R08/1400VP1500U R26/P1500N FG OVC002/// 00/M00 Q1026

TAF TAF EKEB
Valide du 18 à 04h jusqu'au 18 à 12h UTC


180314Z 1804/1812 19008KT 0100 FZFG VV001
TEMPO 1804/1807 3000 BR SCT004
BECMG 1807/1809 4000 BR BKN008
BECMG 1809/1812 8000 NSW SCT008 BKN015
Pas de NOTAMs connus pour ce terrain.



MET'MAP, la Météo Aéronautique d'un coup d'oeil ! - Copyright ORBIFLY Décembre 2007 - Disclaimer

ORBIFLY MET'MAP TEAM :

Programmation & Développement : Alexandra Zaïnal
Conception & Développement : Baudouin d'Aumeries
Co-Programmation & Développement : Marc-Olivier Méhu
Soutien technique & logistique : Manuel Goepfert

Contact : metmap@orbifly.com




SOURCES & CREDITS :

   NOAA